Time;durP1;ratioP1;P1;durP2;ratioP2;P2;SDS_P1;SDS_P2;PMS_P1;PMS_P2;Temp;Humidity;BMP_temperature;BMP_pressure;BME280_temperature;BME280_humidity;BME280_pressure;Samples;Min_cycle;Max_cycle;Signal;HPM_P1;HPM_P2
2022/02/21 00:00:07;;;;;;;87.38;38.85;;;;;;;7.55;67.79;99981.00;5143286;27;20236;-77
2022/02/21 00:02:33;;;;;;;82.97;37.03;;;;;;;7.06;69.80;99963.41;5125633;27;20091;-77
2022/02/21 00:04:58;;;;;;;86.82;37.63;;;;;;;7.17;69.37;99979.09;5125722;27;20031;-77
2022/02/21 00:07:24;;;;;;;83.55;37.55;;;;;;;7.24;69.20;99977.59;5125944;27;20027;-77
2022/02/21 00:09:49;;;;;;;80.28;36.13;;;;;;;7.33;69.20;99981.25;5127096;27;20027;-78
2022/02/21 00:12:15;;;;;;;74.63;35.05;;;;;;;7.26;68.83;99959.84;5127807;27;20026;-77
2022/02/21 00:14:40;;;;;;;78.55;34.88;;;;;;;7.52;67.18;99954.91;5130566;27;20031;-77
2022/02/21 00:17:06;;;;;;;74.47;34.65;;;;;;;7.61;67.14;99967.28;5129674;27;20030;-77
2022/02/21 00:19:31;;;;;;;83.18;36.65;;;;;;;7.51;68.45;99995.41;5128657;27;20090;-77
2022/02/21 00:21:57;;;;;;;83.07;36.67;;;;;;;7.60;67.36;99960.34;5125327;27;20057;-77
2022/02/21 00:24:22;;;;;;;106.15;42.03;;;;;;;7.72;65.81;99928.56;5126715;27;20066;-78
2022/02/21 00:26:48;;;;;;;82.72;37.65;;;;;;;7.84;65.68;99959.09;5140871;27;20106;-77
2022/02/21 00:29:13;;;;;;;94.03;36.70;;;;;;;8.04;65.77;99981.84;5137931;28;20058;-77
2022/02/21 00:31:39;;;;;;;85.03;35.80;;;;;;;8.17;65.09;99974.47;5127479;28;20035;-77
2022/02/21 00:34:04;;;;;;;86.20;37.63;;;;;;;8.30;64.46;99995.28;5125234;27;20055;-77
2022/02/21 00:36:30;;;;;;;80.10;35.53;;;;;;;8.15;64.75;99947.41;5121885;28;20213;-77
2022/02/21 00:38:55;;;;;;;88.43;37.22;;;;;;;8.51;64.13;99984.59;5123200;28;20072;-78
2022/02/21 00:41:21;;;;;;;91.10;37.47;;;;;;;8.51;63.56;99979.31;5125167;27;20035;-78
2022/02/21 00:43:46;;;;;;;74.95;35.45;;;;;;;8.35;64.25;99987.84;5124262;28;20023;-77
2022/02/21 00:46:11;;;;;;;79.32;36.25;;;;;;;8.50;62.72;99981.13;5123208;27;20035;-78
2022/02/21 00:48:37;;;;;;;79.63;34.85;;;;;;;8.30;63.19;99963.63;5126571;28;20031;-77
2022/02/21 00:51:02;;;;;;;85.50;36.75;;;;;;;8.17;63.39;99960.44;5124169;28;20051;-77
2022/02/21 00:53:28;;;;;;;79.82;37.50;;;;;;;7.99;63.90;99960.31;5122947;28;20276;-77
2022/02/21 00:55:53;;;;;;;83.72;37.67;;;;;;;7.71;64.48;99951.47;5123639;28;20027;-77
2022/02/21 00:58:19;;;;;;;93.63;38.53;;;;;;;7.40;66.83;99957.81;5125126;28;20054;-77
2022/02/21 01:00:44;;;;;;;79.05;36.97;;;;;;;7.21;66.92;99930.44;5129907;28;20039;-77
2022/02/21 01:03:09;;;;;;;90.35;39.45;;;;;;;7.55;66.40;99949.38;5124051;28;20023;-78
2022/02/21 01:05:40;;;;;;;82.65;36.05;;;;;;;7.63;65.92;99932.88;5121724;28;20373;-78
2022/02/21 01:08:08;;;;;;;80.88;37.67;;;;;;;7.74;65.62;99924.00;5124336;28;20023;-78
2022/02/21 01:10:34;;;;;;;90.05;37.92;;;;;;;7.96;64.74;99931.59;5128646;28;20110;-77
2022/02/21 01:12:59;;;;;;;72.18;34.38;;;;;;;8.17;63.82;99923.53;5129316;28;20032;-77
2022/02/21 01:15:25;;;;;;;67.18;32.75;;;;;;;8.23;63.34;99925.59;5130040;27;20043;-77
2022/02/21 01:17:50;;;;;;;71.60;31.77;;;;;;;8.16;62.47;99896.31;5128466;27;20072;-77
2022/02/21 01:20:16;;;;;;;71.32;33.88;;;;;;;8.34;61.46;99903.53;5124655;27;20031;-77
2022/02/21 01:22:41;;;;;;;65.78;30.17;;;;;;;8.33;62.68;99905.34;5135846;27;20095;-77
2022/02/21 01:25:08;;;;;;;65.50;30.90;;;;;;;8.38;63.26;99907.56;5131034;27;20090;-77
2022/02/21 01:27:35;;;;;;;60.25;26.42;;;;;;;8.35;63.83;99918.41;5131528;27;20054;-77
2022/02/21 01:30:00;;;;;;;64.68;28.35;;;;;;;8.44;62.94;99896.44;5132935;27;20270;-78
2022/02/21 01:32:26;;;;;;;59.03;28.85;;;;;;;8.54;64.14;99921.81;5145219;27;20023;-78
2022/02/21 01:34:51;;;;;;;68.55;30.55;;;;;;;8.49;63.98;99912.66;5137106;27;20039;-78
2022/02/21 01:37:17;;;;;;;66.97;29.70;;;;;;;8.59;63.77;99911.66;5123200;27;20213;-77
2022/02/21 01:39:43;;;;;;;59.63;29.17;;;;;;;8.58;64.07;99906.50;5125776;27;20145;-77
2022/02/21 01:42:10;;;;;;;65.97;30.27;;;;;;;8.59;63.88;99909.00;5135203;27;20064;-77
2022/02/21 01:44:37;;;;;;;54.88;28.42;;;;;;;8.82;62.24;99898.06;5126439;27;20423;-77
2022/02/21 01:47:05;;;;;;;62.50;29.45;;;;;;;8.61;62.44;99901.78;5128979;27;20103;-77
2022/02/21 01:49:31;;;;;;;92.28;37.05;;;;;;;8.78;62.22;99908.09;5139266;27;20028;-77
2022/02/21 01:51:57;;;;;;;59.42;30.25;;;;;;;8.86;62.89;99907.34;5134676;27;20027;-78
2022/02/21 01:54:22;;;;;;;66.22;31.48;;;;;;;8.77;62.55;99902.94;5128587;27;20270;-78
2022/02/21 01:56:47;;;;;;;62.65;30.50;;;;;;;8.81;62.51;99883.19;5132982;27;20036;-78
2022/02/21 01:59:13;;;;;;;61.30;29.63;;;;;;;8.38;63.80;99897.00;5123626;27;20081;-77
2022/02/21 02:01:38;;;;;;;62.42;30.30;;;;;;;8.05;65.78;99896.47;5131943;27;20037;-77
2022/02/21 02:04:05;;;;;;;66.05;31.25;;;;;;;8.00;66.51;99899.53;5129286;27;20039;-77
2022/02/21 02:06:31;;;;;;;65.38;29.80;;;;;;;8.14;65.88;99900.06;5127854;27;20031;-77
2022/02/21 02:08:59;;;;;;;67.78;30.10;;;;;;;7.99;65.94;99879.41;5133359;27;20274;-78
2022/02/21 02:11:29;;;;;;;61.03;28.38;;;;;;;8.37;65.04;99884.78;5134463;27;20051;-78
2022/02/21 02:13:55;;;;;;;61.80;28.17;;;;;;;8.48;64.65;99901.28;5129649;27;20051;-77
2022/02/21 02:16:21;;;;;;;76.80;29.73;;;;;;;8.24;65.69;99904.34;5132168;27;20080;-77
2022/02/21 02:18:47;;;;;;;59.92;29.70;;;;;;;8.35;66.03;99895.47;5159345;27;20263;-77
2022/02/21 02:21:28;;;;;;;59.22;29.75;;;;;;;7.93;68.14;99897.59;5135296;27;20034;-77
2022/02/21 02:23:54;;;;;;;62.10;27.35;;;;;;;8.09;67.81;99881.19;5144322;27;20034;-78
2022/02/21 02:26:22;;;;;;;59.58;27.98;;;;;;;7.88;68.78;99894.56;5141948;27;20050;-78
2022/02/21 02:28:53;;;;;;;63.70;28.45;;;;;;;8.23;67.67;99897.41;5124548;27;20043;-77
2022/02/21 02:31:19;;;;;;;60.53;27.67;;;;;;;7.94;68.28;99892.19;5136488;27;20031;-77
2022/02/21 02:33:45;;;;;;;59.70;28.95;;;;;;;8.00;68.40;99886.34;5128930;27;20034;-77
2022/02/21 02:36:11;;;;;;;64.07;28.02;;;;;;;8.12;67.16;99887.03;5132667;27;20027;-77
2022/02/21 02:38:38;;;;;;;62.75;28.45;;;;;;;8.40;66.80;99901.16;5140962;27;20015;-77
2022/02/21 02:41:05;;;;;;;65.10;28.45;;;;;;;8.54;66.01;99900.69;5129220;27;20064;-77
2022/02/21 02:43:31;;;;;;;61.22;28.65;;;;;;;8.37;66.84;99896.16;5128332;27;20072;-77
2022/02/21 02:45:56;;;;;;;52.97;26.25;;;;;;;8.70;65.51;99891.31;5127545;27;20314;-77
2022/02/21 02:48:22;;;;;;;55.60;27.05;;;;;;;8.57;65.67;99878.44;5129776;27;20079;-78
2022/02/21 02:50:47;;;;;;;81.60;30.48;;;;;;;8.59;66.50;99889.69;5134798;27;20100;-78
2022/02/21 02:53:13;;;;;;;51.33;24.73;;;;;;;8.73;65.99;99891.03;5143719;27;20039;-77
2022/02/21 02:55:38;;;;;;;53.92;24.48;;;;;;;8.83;65.26;99884.72;5132229;27;20080;-77
2022/02/21 02:58:04;;;;;;;47.50;25.13;;;;;;;8.61;66.33;99887.75;5132048;27;20051;-77
2022/02/21 03:00:29;;;;;;;49.25;23.35;;;;;;;8.74;65.40;99888.22;5127504;27;20243;-77
2022/02/21 03:02:55;;;;;;;47.92;24.45;;;;;;;8.60;65.82;99889.56;5127334;27;20035;-77
2022/02/21 03:05:20;;;;;;;46.75;24.35;;;;;;;8.24;66.69;99891.16;5131020;27;20134;-77
2022/02/21 03:07:46;;;;;;;47.78;22.65;;;;;;;8.19;66.58;99880.19;5129927;27;20031;-77
2022/02/21 03:10:11;;;;;;;52.22;23.77;;;;;;;8.46;66.34;99889.19;5130274;27;20039;-78
2022/02/21 03:12:37;;;;;;;46.92;23.23;;;;;;;8.35;65.83;99879.66;5132312;27;20038;-78
2022/02/21 03:15:03;;;;;;;44.08;21.88;;;;;;;8.52;65.58;99884.16;5134104;27;20046;-78
2022/02/21 03:17:28;;;;;;;49.38;22.83;;;;;;;8.50;65.02;99865.00;5143272;27;20094;-77
2022/02/21 03:19:53;;;;;;;43.88;22.52;;;;;;;8.45;65.94;99880.44;5135566;27;20091;-78
2022/02/21 03:22:19;;;;;;;50.28;22.23;;;;;;;8.55;64.26;99859.28;5143303;27;20023;-77
2022/02/21 03:24:44;;;;;;;49.90;20.92;;;;;;;8.56;65.00;99882.06;5141712;27;20050;-78
2022/02/21 03:27:10;;;;;;;47.97;23.30;;;;;;;8.27;66.27;99864.47;5126638;27;20241;-77
2022/02/21 03:29:35;;;;;;;45.00;21.15;;;;;;;8.32;66.42;99864.91;5124918;27;20019;-78
2022/02/21 03:32:01;;;;;;;47.13;23.10;;;;;;;8.15;67.13;99852.44;5138182;27;20398;-78
2022/02/21 03:34:26;;;;;;;45.72;23.23;;;;;;;8.02;68.05;99860.66;5142671;27;20086;-78
2022/02/21 03:36:52;;;;;;;41.50;21.40;;;;;;;8.27;67.30;99859.22;5132521;27;20030;-77
2022/02/21 03:39:17;;;;;;;47.15;19.85;;;;;;;7.81;68.20;99828.41;5126241;27;20050;-78
2022/02/21 03:41:43;;;;;;;37.88;20.13;;;;;;;7.88;68.08;99831.28;5131312;27;20044;-78
2022/02/21 03:44:08;;;;;;;44.00;20.40;;;;;;;7.99;68.03;99825.84;5123985;27;20031;-77
2022/02/21 03:46:37;;;;;;;50.20;22.05;;;;;;;7.88;68.60;99844.47;5140716;27;20027;-77
2022/02/21 03:49:05;;;;;;;57.55;25.35;;;;;;;7.71;69.55;99847.84;5142415;27;20022;-77
2022/02/21 03:51:32;;;;;;;54.15;24.10;;;;;;;7.82;69.21;99837.97;5128137;27;20088;-77
2022/02/21 03:53:57;;;;;;;45.40;23.17;;;;;;;8.01;68.58;99832.63;5124078;27;20020;-77
2022/02/21 03:56:22;;;;;;;45.65;22.42;;;;;;;8.27;67.78;99832.81;5128822;27;20042;-77
2022/02/21 03:58:48;;;;;;;51.90;24.25;;;;;;;8.41;66.59;99830.75;5127501;27;20052;-77
2022/02/21 04:01:13;;;;;;;49.45;24.88;;;;;;;8.44;66.55;99839.19;5127100;27;20340;-77
2022/02/21 04:03:39;;;;;;;54.55;26.35;;;;;;;8.31;66.13;99826.28;5131461;27;20055;-77
2022/02/21 04:06:05;;;;;;;56.60;25.15;;;;;;;8.47;66.12;99856.56;5139713;27;20035;-78
2022/02/21 04:08:30;;;;;;;50.72;25.33;;;;;;;8.33;66.97;99847.31;5142246;27;20270;-78
2022/02/21 04:10:56;;;;;;;52.63;25.05;;;;;;;8.45;66.89;99845.31;5129421;27;20030;-78
2022/02/21 04:13:21;;;;;;;51.03;24.05;;;;;;;8.50;67.01;99866.81;5125841;27;20087;-78
2022/02/21 04:15:46;;;;;;;53.15;24.65;;;;;;;8.54;67.13;99860.28;5127729;27;20072;-77
2022/02/21 04:18:12;;;;;;;53.53;26.95;;;;;;;8.66;66.77;99860.91;5124198;27;20044;-77
2022/02/21 04:20:38;;;;;;;58.63;26.67;;;;;;;8.44;66.60;99827.81;5131027;27;20031;-77
2022/02/21 04:23:03;;;;;;;54.40;25.90;;;;;;;8.83;65.75;99841.63;5130601;27;20330;-78
2022/02/21 04:25:29;;;;;;;53.58;25.35;;;;;;;8.70;65.53;99830.59;5129214;27;20629;-78
2022/02/21 04:27:56;;;;;;;47.20;24.98;;;;;;;8.75;65.69;99826.53;5126252;27;20083;-77
2022/02/21 04:30:27;;;;;;;54.80;26.27;;;;;;;8.80;65.46;99823.44;5127351;28;20024;-77
2022/02/21 04:32:53;;;;;;;53.65;26.88;;;;;;;8.96;65.26;99837.66;5125109;27;20322;-78
2022/02/21 04:35:20;;;;;;;53.97;26.52;;;;;;;9.08;64.96;99842.72;5130010;28;20027;-78
2022/02/21 04:37:46;;;;;;;56.50;25.92;;;;;;;9.01;65.05;99839.00;5127039;28;20063;-78
2022/02/21 04:40:21;;;;;;;54.55;26.58;;;;;;;8.75;65.23;99813.34;5134569;27;20027;-77
2022/02/21 04:42:48;;;;;;;69.80;27.73;;;;;;;8.44;66.45;99827.81;5125773;28;20031;-77
2022/02/21 04:45:14;;;;;;;59.17;28.00;;;;;;;7.99;68.72;99845.13;5126354;27;20025;-77
2022/02/21 04:47:39;;;;;;;63.40;25.48;;;;;;;7.67;69.22;99832.31;5131340;28;20302;-77
2022/02/21 04:50:07;;;;;;;62.08;25.52;;;;;;;7.63;69.83;99845.91;5121548;28;20383;-77
2022/02/21 04:52:34;;;;;;;70.10;28.05;;;;;;;7.66;69.55;99833.28;5127175;27;20496;-77
2022/02/21 04:54:59;;;;;;;81.88;30.30;;;;;;;7.91;69.68;99829.19;5134840;27;20043;-78
2022/02/21 04:57:25;;;;;;;98.10;31.15;;;;;;;8.17;68.04;99832.03;5127634;27;20047;-78
2022/02/21 04:59:50;;;;;;;51.50;24.38;;;;;;;8.35;67.46;99826.06;5131347;27;20026;-78
2022/02/21 05:02:16;;;;;;;52.10;24.85;;;;;;;8.10;67.77;99786.13;5131532;27;20035;-77
2022/02/21 05:04:41;;;;;;;44.80;23.40;;;;;;;8.25;67.42;99802.28;5131900;27;20035;-78
2022/02/21 05:07:07;;;;;;;39.85;21.17;;;;;;;8.29;67.17;99799.22;5131598;27;20174;-78
2022/02/21 05:09:32;;;;;;;39.95;22.15;;;;;;;8.54;66.20;99818.03;5125736;27;20567;-77
2022/02/21 05:11:58;;;;;;;48.92;21.25;;;;;;;8.52;66.32;99798.88;5129672;27;20038;-77
2022/02/21 05:14:24;;;;;;;50.90;23.38;;;;;;;8.53;66.00;99819.84;5127940;27;20046;-77
2022/02/21 05:16:51;;;;;;;41.40;21.08;;;;;;;8.48;65.35;99803.63;5131751;27;20066;-77
2022/02/21 05:19:16;;;;;;;50.58;21.50;;;;;;;8.44;65.30;99798.78;5127529;27;20321;-77
2022/02/21 05:21:41;;;;;;;68.55;28.05;;;;;;;8.43;66.35;99824.34;5130888;27;20026;-77
2022/02/21 05:24:07;;;;;;;120.50;37.63;;;;;;;8.49;65.82;99813.22;5132077;27;20043;-78
2022/02/21 05:26:33;;;;;;;51.08;24.50;;;;;;;8.35;65.94;99813.69;5124285;27;20047;-78
2022/02/21 05:28:58;;;;;;;49.85;24.00;;;;;;;8.00;66.59;99828.34;5124605;28;20027;-77
2022/02/21 05:31:23;;;;;;;57.03;24.25;;;;;;;8.09;66.26;99808.19;5129777;27;20225;-78
2022/02/21 05:33:50;;;;;;;51.40;26.63;;;;;;;8.28;65.68;99829.22;5131818;27;20021;-78
2022/02/21 05:36:15;;;;;;;54.92;25.73;;;;;;;8.05;65.99;99804.19;5128705;27;20112;-77
2022/02/21 05:38:41;;;;;;;54.33;25.35;;;;;;;8.01;66.25;99813.34;5129594;27;20313;-77
2022/02/21 05:41:07;;;;;;;57.10;24.38;;;;;;;8.10;66.07;99811.66;5130823;27;20237;-77
2022/02/21 05:43:32;;;;;;;48.38;23.73;;;;;;;8.11;66.06;99810.69;5128111;27;20039;-77
2022/02/21 05:45:58;;;;;;;42.50;22.08;;;;;;;7.91;66.56;99828.38;5130367;27;20045;-77
2022/02/21 05:48:23;;;;;;;59.03;25.98;;;;;;;8.03;67.52;99832.50;5131631;27;20092;-77
2022/02/21 05:50:49;;;;;;;53.55;26.92;;;;;;;7.55;67.69;99838.69;5126733;27;20254;-78
2022/02/21 05:53:14;;;;;;;58.97;26.52;;;;;;;7.20;68.96;99833.16;5131152;27;20039;-78
2022/02/21 05:55:39;;;;;;;52.92;26.52;;;;;;;6.80;71.63;99810.38;5132743;27;20230;-78
2022/02/21 05:58:05;;;;;;;75.10;29.98;;;;;;;6.96;71.75;99833.53;5133034;27;20027;-77
2022/02/21 06:00:31;;;;;;;76.43;29.83;;;;;;;7.29;70.68;99830.53;5133993;27;20266;-77
2022/02/21 06:02:56;;;;;;;58.33;27.10;;;;;;;7.53;70.00;99826.66;5131502;27;20055;-77
2022/02/21 06:05:21;;;;;;;57.80;27.55;;;;;;;7.66;69.04;99829.81;5127933;27;20019;-77
2022/02/21 06:07:47;;;;;;;75.80;27.38;;;;;;;7.66;67.72;99800.81;5123993;28;20026;-77
2022/02/21 06:10:12;;;;;;;65.85;27.08;;;;;;;7.91;67.58;99815.19;5123856;27;20171;-77
2022/02/21 06:12:38;;;;;;;72.72;32.75;;;;;;;7.68;68.03;99783.06;5125074;27;20061;-78
2022/02/21 06:15:04;;;;;;;72.85;36.30;;;;;;;7.82;68.13;99792.31;5131956;27;20071;-78
2022/02/21 06:17:29;;;;;;;81.55;39.35;;;;;;;7.95;68.00;99787.56;5131074;27;20232;-78
2022/02/21 06:19:55;;;;;;;76.47;34.53;;;;;;;8.41;67.29;99813.09;5123849;27;20043;-77
2022/02/21 06:22:21;;;;;;;85.85;44.55;;;;;;;8.67;66.89;99820.34;5129486;27;20043;-78
2022/02/21 06:24:47;;;;;;;88.65;43.50;;;;;;;8.55;67.55;99824.97;5128988;27;20023;-77
2022/02/21 06:27:13;;;;;;;92.90;40.08;;;;;;;9.13;65.24;99811.41;5138840;27;20445;-78
2022/02/21 06:29:38;;;;;;;78.13;39.45;;;;;;;9.49;64.15;99820.16;5143877;27;20072;-77
2022/02/21 06:32:04;;;;;;;75.22;38.35;;;;;;;9.88;62.13;99818.78;5136065;27;20094;-77
2022/02/21 06:34:30;;;;;;;86.78;39.28;;;;;;;9.96;62.37;99817.19;5129700;27;20201;-78
2022/02/21 06:36:55;;;;;;;81.32;40.47;;;;;;;10.14;61.52;99804.72;5129537;27;20039;-77
2022/02/21 06:39:21;;;;;;;116.88;50.15;;;;;;;10.36;60.69;99809.47;5133109;27;20042;-77
2022/02/21 06:41:50;;;;;;;83.07;38.70;;;;;;;10.55;60.40;99821.66;5126767;27;20357;-77
2022/02/21 06:44:17;;;;;;;75.70;35.45;;;;;;;10.59;59.95;99790.41;5127060;27;20255;-77
2022/02/21 06:46:43;;;;;;;63.67;32.83;;;;;;;10.85;59.87;99807.84;5125492;27;20109;-78
2022/02/21 06:49:13;;;;;;;59.80;31.73;;;;;;;11.16;58.18;99796.63;5127939;27;20091;-79
2022/02/21 06:51:38;;;;;;;66.18;31.60;;;;;;;11.46;58.42;99813.75;5126571;27;20234;-78
2022/02/21 06:54:06;;;;;;;69.10;34.00;;;;;;;11.60;56.81;99783.91;5131289;27;20039;-78
2022/02/21 06:56:32;;;;;;;68.43;33.28;;;;;;;11.95;54.84;99793.31;5132160;27;20028;-78
2022/02/21 06:58:58;;;;;;;67.82;31.60;;;;;;;11.65;56.59;99801.97;5123759;27;20043;-77
2022/02/21 07:01:23;;;;;;;62.33;30.35;;;;;;;11.79;56.27;99794.19;5128972;27;20038;-77
2022/02/21 07:03:49;;;;;;;61.05;29.70;;;;;;;11.87;56.37;99790.69;5126694;27;20028;-77
2022/02/21 07:06:15;;;;;;;57.03;29.52;;;;;;;12.25;54.78;99782.94;5127437;27;20073;-76
2022/02/21 07:08:41;;;;;;;56.40;30.13;;;;;;;12.43;53.79;99794.97;5127416;27;20034;-75
2022/02/21 07:11:08;;;;;;;56.47;29.98;;;;;;;12.06;54.52;99762.94;5126722;27;20035;-75
2022/02/21 07:13:34;;;;;;;66.32;32.55;;;;;;;12.03;54.35;99787.16;5125318;27;20054;-75
2022/02/21 07:16:00;;;;;;;65.88;33.80;;;;;;;11.76;55.04;99785.69;5130490;27;20321;-76
2022/02/21 07:18:25;;;;;;;63.97;34.53;;;;;;;11.69;55.38;99777.59;5130683;27;20038;-76
2022/02/21 07:20:51;;;;;;;68.25;34.60;;;;;;;11.68;56.01;99778.59;5130744;27;20065;-75
2022/02/21 07:23:16;;;;;;;66.57;34.42;;;;;;;12.02;55.80;99770.41;5134281;27;20047;-75
2022/02/21 07:25:42;;;;;;;67.55;35.58;;;;;;;12.57;53.60;99769.53;5134768;27;20041;-75
2022/02/21 07:28:07;;;;;;;64.32;33.67;;;;;;;12.86;52.79;99773.38;5141423;27;20039;-75
2022/02/21 07:30:33;;;;;;;59.50;31.77;;;;;;;12.71;52.81;99746.72;5139416;27;20080;-75
2022/02/21 07:32:59;;;;;;;57.75;32.08;;;;;;;12.52;53.13;99753.31;5140836;27;20255;-75
2022/02/21 07:35:26;;;;;;;61.63;30.75;;;;;;;12.55;53.02;99765.41;5140368;27;20097;-75
2022/02/21 07:37:51;;;;;;;70.53;31.13;;;;;;;12.41;54.54;99766.94;5140500;27;20320;-77
2022/02/21 07:40:17;;;;;;;61.03;31.35;;;;;;;12.11;54.96;99748.16;5141155;27;20027;-76
2022/02/21 07:42:49;;;;;;;50.60;30.70;;;;;;;12.03;55.64;99758.78;5141202;27;20258;-76
2022/02/21 07:45:14;;;;;;;57.15;30.48;;;;;;;11.95;55.88;99728.81;5140439;27;20304;-76
2022/02/21 07:47:48;;;;;;;70.18;31.73;;;;;;;12.17;55.45;99749.28;5139284;27;20086;-75
2022/02/21 07:50:15;;;;;;;67.50;32.67;;;;;;;12.18;54.45;99753.59;5141357;27;20182;-77
2022/02/21 07:52:41;;;;;;;54.92;29.45;;;;;;;12.07;55.53;99743.34;5140842;27;20064;-77
2022/02/21 07:55:07;;;;;;;62.15;29.77;;;;;;;12.22;54.98;99738.97;5139668;27;20022;-76
2022/02/21 07:57:32;;;;;;;58.83;29.60;;;;;;;12.07;55.57;99701.72;5140306;27;20062;-75
2022/02/21 07:59:58;;;;;;;56.60;28.95;;;;;;;12.39;54.62;99729.94;5140198;27;20235;-75
2022/02/21 08:02:24;;;;;;;61.67;31.23;;;;;;;12.29;54.92;99715.22;5140482;27;20023;-75
2022/02/21 08:04:49;;;;;;;60.13;29.40;;;;;;;12.38;54.61;99727.44;5141111;27;20212;-76
2022/02/21 08:07:15;;;;;;;52.83;28.60;;;;;;;11.84;56.30;99732.66;5140294;27;20042;-78
2022/02/21 08:09:40;;;;;;;63.08;29.98;;;;;;;11.54;57.22;99698.88;5139525;27;20293;-77
2022/02/21 08:12:08;;;;;;;52.13;28.20;;;;;;;11.57;57.81;99717.09;5138762;27;20039;-77
2022/02/21 08:14:34;;;;;;;61.97;29.75;;;;;;;11.49;58.53;99691.44;5138212;27;20148;-77
2022/02/21 08:17:00;;;;;;;76.05;32.28;;;;;;;12.11;56.83;99697.72;5138910;27;20119;-77
2022/02/21 08:19:25;;;;;;;48.67;27.55;;;;;;;12.71;55.82;99718.31;5140697;27;20321;-77
2022/02/21 08:21:52;;;;;;;59.05;26.67;;;;;;;13.30;54.42;99704.44;5138833;27;20550;-77
2022/02/21 08:24:18;;;;;;;56.25;28.83;;;;;;;13.51;53.35;99701.06;5140200;27;20262;-77
2022/02/21 08:26:43;;;;;;;51.00;25.58;;;;;;;13.71;52.50;99712.84;5138953;27;20051;-77
2022/02/21 08:29:09;;;;;;;51.65;25.83;;;;;;;14.01;51.54;99679.06;5139883;27;20348;-78
2022/02/21 08:31:34;;;;;;;46.75;25.38;;;;;;;14.16;51.61;99700.34;5140698;27;20050;-77
2022/02/21 08:34:00;;;;;;;45.67;23.83;;;;;;;13.65;52.61;99674.50;5138627;28;20019;-78
2022/02/21 08:36:26;;;;;;;41.50;22.52;;;;;;;13.72;52.27;99695.88;5140230;27;20233;-77
2022/02/21 08:38:52;;;;;;;47.38;22.75;;;;;;;14.10;51.00;99677.13;5138118;28;20393;-77
2022/02/21 08:41:17;;;;;;;42.20;22.83;;;;;;;14.06;51.15;99658.84;5139842;27;20090;-77
2022/02/21 08:43:43;;;;;;;45.15;22.73;;;;;;;14.25;51.07;99668.09;5137925;28;20212;-77
2022/02/21 08:46:10;;;;;;;43.05;22.48;;;;;;;14.32;50.93;99663.66;5140085;27;20270;-77
2022/02/21 08:48:36;;;;;;;44.78;22.73;;;;;;;14.23;51.18;99656.81;5139832;28;20034;-77
2022/02/21 08:51:01;;;;;;;33.72;20.05;;;;;;;13.92;51.31;99650.91;5140828;28;20031;-77
2022/02/21 08:53:27;;;;;;;42.38;22.33;;;;;;;14.09;51.33;99646.19;5139438;28;20022;-77
2022/02/21 08:55:52;;;;;;;43.00;20.67;;;;;;;14.33;51.75;99654.66;5141313;27;20085;-77
2022/02/21 08:58:18;;;;;;;38.38;20.35;;;;;;;14.60;50.87;99650.50;5140485;28;20047;-77
2022/02/21 09:00:43;;;;;;;36.08;20.60;;;;;;;14.42;51.37;99650.06;5140977;28;20240;-78
2022/02/21 09:03:09;;;;;;;34.72;17.98;;;;;;;14.11;51.92;99647.66;5139527;27;20317;-78
2022/02/21 09:05:35;;;;;;;34.00;19.25;;;;;;;13.92;51.86;99625.09;5137842;28;20023;-77
2022/02/21 09:08:01;;;;;;;36.80;19.20;;;;;;;14.49;50.94;99644.81;5141048;27;20046;-77
2022/02/21 09:10:26;;;;;;;41.40;20.33;;;;;;;14.65;50.19;99636.59;5139495;28;20027;-77
2022/02/21 09:12:52;;;;;;;42.22;20.48;;;;;;;14.58;50.45;99617.06;5136799;28;20403;-77
2022/02/21 09:15:18;;;;;;;39.50;20.60;;;;;;;14.10;51.35;99600.72;5134901;27;20039;-77
2022/02/21 09:17:43;;;;;;;42.00;22.80;;;;;;;14.42;50.73;99614.59;5134891;28;20035;-77
2022/02/21 09:20:09;;;;;;;32.17;17.90;;;;;;;14.20;49.73;99595.09;5134881;27;20320;-77
2022/02/21 09:22:34;;;;;;;34.15;16.50;;;;;;;14.00;50.44;99585.06;5134693;28;20035;-77
2022/02/21 09:25:00;;;;;;;39.95;18.52;;;;;;;14.23;50.28;99600.88;5131589;28;20219;-77
2022/02/21 09:27:25;;;;;;;26.13;13.80;;;;;;;13.49;51.35;99551.47;5139768;27;20210;-78
2022/02/21 09:29:51;;;;;;;29.30;15.05;;;;;;;13.96;51.21;99597.09;5133728;27;20043;-78
2022/02/21 09:32:16;;;;;;;26.63;14.85;;;;;;;13.92;50.87;99589.69;5133854;28;20031;-77
2022/02/21 09:34:42;;;;;;;27.98;14.68;;;;;;;13.74;51.13;99574.94;5135142;28;20027;-77
2022/02/21 09:37:08;;;;;;;29.17;16.90;;;;;;;13.89;51.88;99574.91;5133258;27;20035;-77
2022/02/21 09:39:34;;;;;;;37.78;19.27;;;;;;;13.34;53.38;99580.72;5137729;27;20031;-77
2022/02/21 09:41:59;;;;;;;29.33;14.98;;;;;;;13.69;52.88;99577.34;5137619;27;20135;-77
2022/02/21 09:44:25;;;;;;;30.27;14.23;;;;;;;13.78;51.00;99548.78;5138815;27;20514;-77
2022/02/21 09:46:52;;;;;;;28.15;14.88;;;;;;;13.54;53.13;99557.91;5138778;27;20042;-77
2022/02/21 09:49:19;;;;;;;30.85;15.50;;;;;;;13.50;53.25;99555.78;5138720;27;20027;-77
2022/02/21 09:51:45;;;;;;;28.05;14.27;;;;;;;13.52;53.64;99556.41;5138336;27;20034;-77
2022/02/21 09:54:12;;;;;;;24.85;12.93;;;;;;;13.48;53.78;99550.63;5139505;27;20033;-77
2022/02/21 09:56:38;;;;;;;22.33;12.38;;;;;;;13.35;53.82;99545.97;5136605;27;20027;-76
2022/02/21 09:59:03;;;;;;;24.00;13.65;;;;;;;13.28;54.04;99536.25;5139022;27;20201;-75
2022/02/21 10:01:29;;;;;;;28.50;14.07;;;;;;;13.23;53.92;99528.00;5138405;27;20660;-77
2022/02/21 10:03:57;;;;;;;24.85;13.27;;;;;;;13.74;53.35;99542.19;5137970;27;20035;-77
2022/02/21 10:06:29;;;;;;;20.52;12.05;;;;;;;13.43;53.81;99518.44;5136594;27;20035;-77
2022/02/21 10:08:56;;;;;;;21.80;12.32;;;;;;;13.58;54.74;99521.94;5139076;27;20072;-75
2022/02/21 10:11:29;;;;;;;28.48;14.07;;;;;;;13.43;54.86;99475.91;5139309;27;20103;-77
2022/02/21 10:14:07;;;;;;;29.15;14.63;;;;;;;13.58;53.73;99505.16;5136695;27;20031;-77
2022/02/21 10:16:59;;;;;;;26.27;12.65;;;;;;;13.78;53.10;99500.88;5136886;27;20831;-78
2022/02/21 10:19:27;;;;;;;23.45;13.15;;;;;;;13.68;52.52;99495.84;5137337;27;20521;-77
2022/02/21 10:22:01;;;;;;;22.55;11.60;;;;;;;13.58;53.07;99492.69;5137020;27;20352;-79
2022/02/21 10:24:50;;;;;;;22.17;12.25;;;;;;;13.63;54.00;99486.78;5136889;27;20193;-78
2022/02/21 10:27:29;;;;;;;26.13;12.30;;;;;;;13.77;53.82;99477.94;5138473;27;20043;-77
2022/02/21 10:30:07;;;;;;;25.70;12.88;;;;;;;13.80;53.31;99476.75;5136310;27;20020;-77
2022/02/21 10:32:34;;;;;;;26.17;13.20;;;;;;;13.81;53.08;99468.56;5137791;27;20035;-77
2022/02/21 10:35:10;;;;;;;30.48;12.52;;;;;;;13.80;54.38;99450.94;5137004;27;20258;-77
2022/02/21 10:37:45;;;;;;;25.67;12.38;;;;;;;13.85;52.99;99427.25;5152868;27;20090;-77
2022/02/21 10:40:16;;;;;;;;;;;;;;;13.93;53.90;99439.59;5138583;27;20031;-77
2022/02/21 10:42:44;;;;;;;29.85;14.48;;;;;;;13.53;53.67;99391.34;5137982;27;19923;-77
2022/02/21 10:45:18;;;;;;;23.30;12.25;;;;;;;14.07;54.32;99417.41;5137473;27;20019;-77
2022/02/21 10:48:09;;;;;;;21.38;11.77;;;;;;;13.89;53.56;99414.38;5136393;27;20019;-77
2022/02/21 10:50:37;;;;;;;22.65;12.07;;;;;;;14.15;52.57;99390.63;5135860;27;21149;-78
2022/02/21 10:53:13;;;;;;;21.67;12.10;;;;;;;13.86;53.93;99396.97;5137170;27;20035;-78
2022/02/21 10:55:41;;;;;;;19.73;10.20;;;;;;;13.89;54.47;99396.56;5137891;27;20034;-77
2022/02/21 10:58:22;;;;;;;19.65;10.25;;;;;;;14.18;54.01;99384.94;5137282;27;20027;-77
2022/02/21 11:00:51;;;;;;;19.67;10.45;;;;;;;14.20;53.77;99377.56;5137420;27;20058;-77
2022/02/21 11:03:18;;;;;;;22.38;10.73;;;;;;;14.24;54.02;99370.00;5137217;27;20031;-77
2022/02/21 11:05:45;;;;;;;18.67;9.80;;;;;;;14.12;53.86;99356.41;5137065;27;20086;-77
2022/02/21 11:08:11;;;;;;;19.60;10.68;;;;;;;14.20;54.71;99366.09;5138279;27;20035;-77
2022/02/21 11:10:37;;;;;;;17.58;10.02;;;;;;;14.27;53.58;99354.47;5135518;27;20072;-77
2022/02/21 11:13:04;;;;;;;19.33;9.88;;;;;;;14.54;54.02;99349.31;5137703;27;20027;-77
2022/02/21 11:15:30;;;;;;;16.02;9.43;;;;;;;14.56;54.09;99350.78;5136285;27;20310;-77
2022/02/21 11:17:57;;;;;;;22.20;10.60;;;;;;;14.63;53.76;99334.84;5136487;27;20046;-78